createdAt,value
2023-04-17T00:01:43.000Z,24
2023-04-17T00:05:16.000Z,24.6
2023-04-17T00:08:49.000Z,27.3
2023-04-17T00:12:22.000Z,26.6
2023-04-17T00:15:13.000Z,25.2
2023-04-17T00:18:46.000Z,28
2023-04-17T00:22:18.000Z,28.9
2023-04-17T00:25:51.000Z,25.1
2023-04-17T00:29:23.000Z,28.1
2023-04-17T00:32:56.000Z,27.3
2023-04-17T00:36:29.000Z,25.2
2023-04-17T00:40:01.000Z,24.9
2023-04-17T00:43:34.000Z,26.8
2023-04-17T00:47:07.000Z,25.5
2023-04-17T00:50:39.000Z,25.7
2023-04-17T00:53:31.000Z,28.8
2023-04-17T00:57:03.000Z,27.7
2023-04-17T01:00:36.000Z,27.8
2023-04-17T01:04:09.000Z,26.4
2023-04-17T01:07:41.000Z,28.7
2023-04-17T01:11:14.000Z,26.3
2023-04-17T01:14:47.000Z,25.8
2023-04-17T01:18:19.000Z,27
2023-04-17T01:21:52.000Z,28.8
2023-04-17T01:25:25.000Z,27.3
2023-04-17T01:28:57.000Z,27.4
2023-04-17T01:31:49.000Z,27.3
2023-04-17T01:35:21.000Z,28.1
2023-04-17T01:38:54.000Z,26.4
2023-04-17T01:42:26.000Z,26.9
2023-04-17T01:45:59.000Z,26
2023-04-17T01:49:32.000Z,24.5
2023-04-17T01:53:04.000Z,24.1
2023-04-17T01:56:37.000Z,23.9
2023-04-17T02:00:10.000Z,22.9
2023-04-17T02:03:42.000Z,23.1
2023-04-17T02:07:16.000Z,23.7
2023-04-17T02:10:07.000Z,22.8
2023-04-17T02:13:40.000Z,23.2
2023-04-17T02:17:12.000Z,23
2023-04-17T02:20:45.000Z,26.9
2023-04-17T02:24:17.000Z,26
2023-04-17T02:27:50.000Z,26.4
2023-04-17T02:31:22.000Z,25.9
2023-04-17T02:34:55.000Z,23.8
2023-04-17T02:38:28.000Z,21.7
2023-04-17T02:42:01.000Z,20.9
2023-04-17T02:45:33.000Z,25.1
2023-04-17T02:48:24.000Z,21
2023-04-17T02:51:57.000Z,21.3
2023-04-17T02:55:29.000Z,22.4
2023-04-17T02:59:02.000Z,25.3
2023-04-17T03:02:35.000Z,22.9
2023-04-17T03:06:08.000Z,22.8
2023-04-17T03:09:41.000Z,24.2
2023-04-17T03:13:13.000Z,23.6
2023-04-17T03:16:46.000Z,24.9
2023-04-17T03:20:19.000Z,23.4
2023-04-17T03:23:51.000Z,23.1
2023-04-17T03:26:42.000Z,24.8
2023-04-17T03:30:15.000Z,23.5
2023-04-17T03:33:48.000Z,21.5
2023-04-17T03:37:20.000Z,22
2023-04-17T03:40:53.000Z,21.6
2023-04-17T03:44:26.000Z,20.7
2023-04-17T03:47:58.000Z,22.1
2023-04-17T03:51:31.000Z,25.4
2023-04-17T03:55:04.000Z,22.8
2023-04-17T03:58:36.000Z,24.4
2023-04-17T04:02:09.000Z,22.2
2023-04-17T04:05:00.000Z,22.7
2023-04-17T04:08:33.000Z,23.7
2023-04-17T04:12:06.000Z,21.1
2023-04-17T04:15:38.000Z,23.4
2023-04-17T04:19:11.000Z,20.4
2023-04-17T04:22:43.000Z,22.7
2023-04-17T04:26:16.000Z,20.6
2023-04-17T04:29:49.000Z,19.4
2023-04-17T04:33:22.000Z,19.7
2023-04-17T04:36:54.000Z,19.6
2023-04-17T04:40:27.000Z,20.4
2023-04-17T04:43:18.000Z,20.3
2023-04-17T04:46:51.000Z,20.5
2023-04-17T04:50:23.000Z,21.6
2023-04-17T04:53:56.000Z,20.4
2023-04-17T04:57:29.000Z,18.8
2023-04-17T05:01:01.000Z,19.5
2023-04-17T05:04:34.000Z,18.6
2023-04-17T05:08:07.000Z,19.4
2023-04-17T05:11:40.000Z,19.1
2023-04-17T05:15:12.000Z,21.1
2023-04-17T05:18:45.000Z,22.4
2023-04-17T05:21:36.000Z,20.9
2023-04-17T05:25:09.000Z,20.4
2023-04-17T05:28:41.000Z,20.9
2023-04-17T05:32:14.000Z,21.3
2023-04-17T05:35:47.000Z,21.5
2023-04-17T05:39:21.000Z,22.1
2023-04-17T05:42:54.000Z,22.8
2023-04-17T05:46:27.000Z,22.1
2023-04-17T05:50:00.000Z,20.5
2023-04-17T05:53:32.000Z,18.6
2023-04-17T05:57:05.000Z,17.4
2023-04-17T05:59:56.000Z,15.8
2023-04-17T06:03:29.000Z,16
2023-04-17T06:07:02.000Z,14.8
2023-04-17T06:10:35.000Z,15.1
2023-04-17T06:14:07.000Z,15
2023-04-17T06:17:40.000Z,14.9
2023-04-17T06:21:13.000Z,14.6
2023-04-17T06:24:45.000Z,13.9
2023-04-17T06:28:18.000Z,14.5
2023-04-17T06:31:51.000Z,16.2
2023-04-17T06:35:25.000Z,17.6
2023-04-17T06:38:16.000Z,14.5
2023-04-17T06:41:49.000Z,14.7
2023-04-17T06:45:22.000Z,14.2
2023-04-17T06:48:54.000Z,16
2023-04-17T06:52:27.000Z,15.2
2023-04-17T06:55:59.000Z,16.6
2023-04-17T06:59:32.000Z,16
2023-04-17T07:03:04.000Z,17.3
2023-04-17T07:06:37.000Z,17.3
2023-04-17T07:10:10.000Z,17
2023-04-17T07:13:42.000Z,16.5
2023-04-17T07:16:33.000Z,16.5
2023-04-17T07:20:06.000Z,16.8
2023-04-17T07:23:39.000Z,15.1
2023-04-17T07:27:12.000Z,14.9
2023-04-17T07:30:44.000Z,15.5
2023-04-17T07:34:17.000Z,17.2
2023-04-17T07:37:49.000Z,15.5
2023-04-17T07:41:22.000Z,15.8
2023-04-17T07:44:55.000Z,15.1
2023-04-17T07:48:27.000Z,13.8
2023-04-17T07:52:00.000Z,14.1
2023-04-17T07:54:51.000Z,14.7
2023-04-17T07:58:24.000Z,14.5
2023-04-17T08:01:57.000Z,15
2023-04-17T08:05:30.000Z,14.1
2023-04-17T08:09:03.000Z,13.6
2023-04-17T08:12:36.000Z,13.5
2023-04-17T08:16:08.000Z,12.8
2023-04-17T08:19:41.000Z,12.3
2023-04-17T08:23:14.000Z,13.4
2023-04-17T08:26:47.000Z,12.4
2023-04-17T08:30:19.000Z,13.8
2023-04-17T08:33:10.000Z,16
2023-04-17T08:36:43.000Z,14.7
2023-04-17T08:40:15.000Z,15.8
2023-04-17T08:43:48.000Z,15.5
2023-04-17T08:47:21.000Z,14.8
2023-04-17T08:50:54.000Z,15.4
2023-04-17T08:54:26.000Z,13.7
2023-04-17T08:58:02.000Z,13.9
2023-04-17T09:01:34.000Z,13.2
2023-04-17T09:05:08.000Z,11.9
2023-04-17T09:08:40.000Z,11.5
2023-04-17T09:11:31.000Z,11.3
2023-04-17T09:15:04.000Z,11.6
2023-04-17T09:18:37.000Z,10.9
2023-04-17T09:22:09.000Z,10.4
2023-04-17T09:25:42.000Z,10.5
2023-04-17T09:29:14.000Z,9.8
2023-04-17T09:32:47.000Z,9.9
2023-04-17T09:36:20.000Z,9.7
2023-04-17T09:39:52.000Z,10.1
2023-04-17T09:43:25.000Z,9.2
2023-04-17T09:46:58.000Z,9.6
2023-04-17T09:49:49.000Z,10.5
2023-04-17T09:53:22.000Z,9.4
2023-04-17T09:56:54.000Z,9.9
2023-04-17T10:00:27.000Z,9.8
2023-04-17T10:04:00.000Z,9.9
2023-04-17T10:07:33.000Z,9.5
2023-04-17T10:11:06.000Z,10
2023-04-17T10:14:38.000Z,9.1
2023-04-17T10:18:11.000Z,9.1
2023-04-17T10:21:44.000Z,9.4
2023-04-17T10:25:16.000Z,8.3
2023-04-17T10:28:07.000Z,9.4
2023-04-17T10:31:40.000Z,8.5
2023-04-17T10:35:13.000Z,8
2023-04-17T10:38:45.000Z,8.2
2023-04-17T10:42:18.000Z,8.2
2023-04-17T10:45:51.000Z,8.3
2023-04-17T10:49:23.000Z,8.3
2023-04-17T10:52:56.000Z,7.7
2023-04-17T10:56:29.000Z,7.6
2023-04-17T11:00:02.000Z,7.8
2023-04-17T11:03:34.000Z,7
2023-04-17T11:06:26.000Z,8.3
2023-04-17T11:09:58.000Z,8.6
2023-04-17T11:13:42.000Z,8.6
2023-04-17T11:17:15.000Z,8.2
2023-04-17T11:20:48.000Z,8.3
2023-04-17T11:24:21.000Z,7.8
2023-04-17T11:27:53.000Z,7
2023-04-17T11:31:26.000Z,8.7
2023-04-17T11:34:59.000Z,7.8
2023-04-17T11:38:31.000Z,8.2
2023-04-17T11:42:04.000Z,7.8
2023-04-17T11:44:55.000Z,7.8
2023-04-17T11:48:30.000Z,8
2023-04-17T11:52:02.000Z,8.1
2023-04-17T11:55:35.000Z,7.5
2023-04-17T11:59:08.000Z,7.6
2023-04-17T12:02:40.000Z,8.2
2023-04-17T12:06:14.000Z,8.1
2023-04-17T12:09:47.000Z,8.1
2023-04-17T12:13:20.000Z,7.3
2023-04-17T12:16:52.000Z,7.8
2023-04-17T12:20:25.000Z,7.5
2023-04-17T12:23:16.000Z,8
2023-04-17T12:26:49.000Z,7.9
2023-04-17T12:30:22.000Z,8.4
2023-04-17T12:33:54.000Z,7.8
2023-04-17T12:37:27.000Z,7.6
2023-04-17T12:41:00.000Z,7.6
2023-04-17T12:44:47.000Z,7.1
2023-04-17T12:48:20.000Z,8
2023-04-17T12:51:53.000Z,8
2023-04-17T12:55:29.000Z,7.1
2023-04-17T12:59:01.000Z,8.2
2023-04-17T13:01:53.000Z,8
2023-04-17T13:05:26.000Z,8
2023-04-17T13:08:58.000Z,7.5
2023-04-17T13:12:31.000Z,8.1
2023-04-17T13:16:04.000Z,7.4
2023-04-17T13:19:37.000Z,6.4
2023-04-17T13:23:10.000Z,6.9
2023-04-17T13:26:42.000Z,7
2023-04-17T13:30:15.000Z,6.6
2023-04-17T13:33:47.000Z,7.2
2023-04-17T13:37:20.000Z,7.3
2023-04-17T13:40:11.000Z,7.5
2023-04-17T13:43:43.000Z,7.1
2023-04-17T13:47:16.000Z,6.8
2023-04-17T13:50:49.000Z,7.2
2023-04-17T13:54:21.000Z,6.2
2023-04-17T13:57:54.000Z,5.8
2023-04-17T14:01:26.000Z,6.5
2023-04-17T14:04:59.000Z,7.3
2023-04-17T14:08:32.000Z,7.3
2023-04-17T14:12:08.000Z,6.9
2023-04-17T14:15:40.000Z,5.3
2023-04-17T14:18:31.000Z,6.3
2023-04-17T14:22:04.000Z,7.1
2023-04-17T14:25:37.000Z,7.3
2023-04-17T14:29:09.000Z,8
2023-04-17T14:32:42.000Z,7.2
2023-04-17T14:36:15.000Z,7.4
2023-04-17T14:39:47.000Z,7.4
2023-04-17T14:43:20.000Z,6.9
2023-04-17T14:46:52.000Z,7.3
2023-04-17T14:50:25.000Z,6.9
2023-04-17T14:53:58.000Z,7
2023-04-17T14:56:49.000Z,6.7
2023-04-17T15:00:22.000Z,6.2
2023-04-17T15:03:54.000Z,7.4
2023-04-17T15:07:27.000Z,6
2023-04-17T15:11:00.000Z,6.5
2023-04-17T15:14:32.000Z,6.5
2023-04-17T15:18:05.000Z,6.9
2023-04-17T15:21:38.000Z,7.2
2023-04-17T15:25:10.000Z,7.1
2023-04-17T15:28:44.000Z,6.8
2023-04-17T15:32:16.000Z,7.1
2023-04-17T15:35:07.000Z,8.8
2023-04-17T15:38:40.000Z,8.8
2023-04-17T15:42:13.000Z,8.1
2023-04-17T15:45:46.000Z,8
2023-04-17T15:49:18.000Z,7.4
2023-04-17T15:52:51.000Z,7.2
2023-04-17T15:56:24.000Z,7.8
2023-04-17T15:59:57.000Z,8.6
2023-04-17T16:03:29.000Z,9.3
2023-04-17T16:07:02.000Z,8.7
2023-04-17T16:10:35.000Z,8.9
2023-04-17T16:13:27.000Z,8.7
2023-04-17T16:16:59.000Z,8.9
2023-04-17T16:20:32.000Z,8.5
2023-04-17T16:24:04.000Z,7.9
2023-04-17T16:27:37.000Z,8.3
2023-04-17T16:31:10.000Z,8.6
2023-04-17T16:34:43.000Z,8.3
2023-04-17T16:38:15.000Z,8.3
2023-04-17T16:41:48.000Z,7.8
2023-04-17T16:45:21.000Z,7.5
2023-04-17T16:48:56.000Z,8
2023-04-17T16:51:47.000Z,8.9
2023-04-17T16:55:20.000Z,9.1
2023-04-17T16:58:53.000Z,8.4
2023-04-17T17:02:25.000Z,8.7
2023-04-17T17:05:58.000Z,8.4
2023-04-17T17:09:31.000Z,9.3
2023-04-17T17:13:03.000Z,10.2
2023-04-17T17:16:36.000Z,9.5
2023-04-17T17:20:09.000Z,12.5
2023-04-17T17:23:41.000Z,10.3
2023-04-17T17:27:14.000Z,10.4
2023-04-17T17:30:05.000Z,9.2
2023-04-17T17:33:38.000Z,8.7
2023-04-17T17:37:11.000Z,9
2023-04-17T17:40:43.000Z,9.5
2023-04-17T17:44:16.000Z,10.2
2023-04-17T17:47:49.000Z,10.1
2023-04-17T17:51:21.000Z,9.9
2023-04-17T17:54:57.000Z,9.6
2023-04-17T17:58:30.000Z,9.4
2023-04-17T18:02:02.000Z,10.2
2023-04-17T18:05:35.000Z,9.9
2023-04-17T18:08:27.000Z,10
2023-04-17T18:11:59.000Z,9.7
2023-04-17T18:15:32.000Z,10.2
2023-04-17T18:19:04.000Z,10
2023-04-17T18:22:37.000Z,9.5
2023-04-17T18:26:10.000Z,9.5
2023-04-17T18:29:43.000Z,10.2
2023-04-17T18:33:15.000Z,10.6
2023-04-17T18:36:48.000Z,11.5
2023-04-17T18:40:20.000Z,11.6
2023-04-17T18:43:53.000Z,12.2
2023-04-17T18:46:44.000Z,11.5
2023-04-17T18:50:17.000Z,10.5
2023-04-17T18:53:50.000Z,9.9
2023-04-17T18:57:22.000Z,9.9
2023-04-17T19:00:55.000Z,9.6
2023-04-17T19:04:28.000Z,11
2023-04-17T19:08:00.000Z,10.5
2023-04-17T19:11:33.000Z,11.2
2023-04-17T19:15:06.000Z,12.2
2023-04-17T19:18:38.000Z,10.7
2023-04-17T19:22:11.000Z,11.2
2023-04-17T19:25:02.000Z,10.4
2023-04-17T19:28:35.000Z,12.4
2023-04-17T19:32:08.000Z,10.6
2023-04-17T19:35:40.000Z,9.9
2023-04-17T19:39:13.000Z,9.6
2023-04-17T19:42:45.000Z,10.5
2023-04-17T19:46:18.000Z,10.2
2023-04-17T19:49:51.000Z,10.4
2023-04-17T19:53:23.000Z,10.2
2023-04-17T19:56:56.000Z,11
2023-04-17T20:00:29.000Z,10.8
2023-04-17T20:03:20.000Z,10.9
2023-04-17T20:06:53.000Z,10.3
2023-04-17T20:10:25.000Z,9.9
2023-04-17T20:13:58.000Z,9.2
2023-04-17T20:17:31.000Z,15.9
2023-04-17T20:21:03.000Z,14.7
2023-04-17T20:24:36.000Z,10.4
2023-04-17T20:28:09.000Z,9.7
2023-04-17T20:31:41.000Z,9.1
2023-04-17T20:35:15.000Z,9.6
2023-04-17T20:38:47.000Z,9.3
2023-04-17T20:41:38.000Z,9
2023-04-17T20:45:11.000Z,9.3
2023-04-17T20:48:43.000Z,9.1
2023-04-17T20:52:16.000Z,9.3
2023-04-17T20:55:49.000Z,8.9
2023-04-17T20:59:23.000Z,9.4
2023-04-17T21:03:00.000Z,9.7
2023-04-17T21:06:33.000Z,9.7
2023-04-17T21:10:06.000Z,10
2023-04-17T21:13:39.000Z,9.7
2023-04-17T21:17:11.000Z,9.9
2023-04-17T21:20:02.000Z,9.6
2023-04-17T21:23:35.000Z,9.8
2023-04-17T21:27:08.000Z,9.5
2023-04-17T21:30:40.000Z,9.6
2023-04-17T21:34:13.000Z,9.7
2023-04-17T21:37:45.000Z,9.6
2023-04-17T21:41:18.000Z,9.7
2023-04-17T21:44:51.000Z,10.2
2023-04-17T21:48:23.000Z,11.2
2023-04-17T21:51:56.000Z,10.7
2023-04-17T21:55:28.000Z,11.1
2023-04-17T21:58:20.000Z,9.8
2023-04-17T22:01:52.000Z,11.6
2023-04-17T22:05:25.000Z,11
2023-04-17T22:08:58.000Z,10.7
2023-04-17T22:12:30.000Z,10.6
2023-04-17T22:16:03.000Z,10.2
2023-04-17T22:19:36.000Z,10.1
2023-04-17T22:23:08.000Z,10.2
2023-04-17T22:26:41.000Z,11.1
2023-04-17T22:30:14.000Z,10.9
2023-04-17T22:33:46.000Z,10.2
2023-04-17T22:36:37.000Z,10.3
2023-04-17T22:40:10.000Z,10.3
2023-04-17T22:43:43.000Z,10.9
2023-04-17T22:47:15.000Z,11
2023-04-17T22:50:48.000Z,10.4
2023-04-17T22:54:20.000Z,10.5
2023-04-17T22:57:53.000Z,10.1
2023-04-17T23:01:26.000Z,10.3
2023-04-17T23:04:59.000Z,9.7
2023-04-17T23:08:31.000Z,10.1
2023-04-17T23:12:04.000Z,10.4
2023-04-17T23:14:55.000Z,10.8
2023-04-17T23:18:28.000Z,11.5
2023-04-17T23:22:01.000Z,10.9
2023-04-17T23:25:33.000Z,11.2
2023-04-17T23:29:06.000Z,11.9
2023-04-17T23:32:38.000Z,12.4
2023-04-17T23:36:12.000Z,11.7
2023-04-17T23:39:44.000Z,11.2
2023-04-17T23:43:17.000Z,10.7
2023-04-17T23:46:50.000Z,10.7
2023-04-17T23:50:22.000Z,11.7
2023-04-17T23:53:14.000Z,11.3
2023-04-17T23:56:46.000Z,11.5
